createdAt,value
2022-10-13T00:00:16.914Z,41.77
2022-10-13T00:05:19.239Z,41.41
2022-10-13T00:10:21.028Z,41.55
2022-10-13T00:15:26.141Z,41.89
2022-10-13T00:20:27.936Z,42.08
2022-10-13T00:25:29.705Z,42.06
2022-10-13T00:30:35.135Z,41.89
2022-10-13T00:35:45.412Z,41.74
2022-10-13T00:40:55.522Z,41.61
2022-10-13T00:45:57.323Z,41.87
2022-10-13T00:50:59.201Z,41.84
2022-10-13T00:56:01.416Z,41.67
2022-10-13T01:01:04.756Z,41.88
2022-10-13T01:06:08.335Z,42.94
2022-10-13T01:11:32.156Z,42.63
2022-10-13T01:16:55.725Z,42.72
2022-10-13T01:22:09.603Z,42.42
2022-10-13T01:27:20.140Z,42.57
2022-10-13T01:32:38.969Z,42.30
2022-10-13T01:38:08.217Z,42.47
2022-10-13T01:43:25.353Z,42.41
2022-10-13T01:48:28.831Z,42.20
2022-10-13T01:53:31.108Z,42.49
2022-10-13T01:58:35.874Z,42.53
2022-10-13T02:04:06.711Z,42.62
2022-10-13T02:09:21.403Z,42.42
2022-10-13T02:14:30.314Z,42.42
2022-10-13T02:19:36.342Z,42.22
2022-10-13T02:24:38.372Z,42.18
2022-10-13T02:29:54.108Z,42.19
2022-10-13T02:34:56.046Z,42.14
2022-10-13T02:39:57.942Z,42.28
2022-10-13T02:44:59.858Z,42.17
2022-10-13T02:50:01.823Z,42.05
2022-10-13T02:55:04.177Z,42.10
2022-10-13T03:00:07.457Z,42.34
2022-10-13T03:05:10.002Z,42.30
2022-10-13T03:10:12.157Z,42.47
2022-10-13T03:15:14.335Z,42.11
2022-10-13T03:20:16.504Z,42.10
2022-10-13T03:25:18.364Z,42.23
2022-10-13T03:30:20.251Z,42.08
2022-10-13T03:35:22.009Z,42.24
2022-10-13T03:40:25.026Z,42.09
2022-10-13T03:45:27.105Z,41.95
2022-10-13T03:50:29.158Z,41.85
2022-10-13T03:55:30.970Z,42.22
2022-10-13T04:00:32.813Z,41.99
2022-10-13T04:05:35.035Z,41.91
2022-10-13T04:10:37.093Z,42.31
2022-10-13T04:15:40.219Z,42.14
2022-10-13T04:20:42.007Z,42.54
2022-10-13T04:25:43.959Z,42.35
2022-10-13T04:30:49.407Z,42.28
2022-10-13T04:35:52.196Z,42.37
2022-10-13T04:40:54.042Z,42.11
2022-10-13T04:46:05.775Z,42.44
2022-10-13T04:51:10.765Z,42.02
2022-10-13T04:56:15.925Z,42.18
2022-10-13T05:01:22.653Z,42.41
2022-10-13T05:06:30.418Z,42.19
2022-10-13T05:11:32.555Z,42.10
2022-10-13T05:16:34.813Z,42.52
2022-10-13T05:21:36.680Z,42.18
2022-10-13T05:26:38.780Z,42.57
2022-10-13T05:31:41.463Z,42.24
2022-10-13T05:36:43.350Z,42.31
2022-10-13T05:41:45.214Z,42.42
2022-10-13T05:46:47.186Z,42.55
2022-10-13T05:51:55.734Z,42.47
2022-10-13T05:57:04.947Z,42.87
2022-10-13T06:02:09.323Z,42.37
2022-10-13T06:07:12.469Z,42.25
2022-10-13T06:12:14.829Z,42.82
2022-10-13T06:17:16.633Z,42.81
2022-10-13T06:22:19.020Z,42.33
2022-10-13T06:27:20.941Z,42.47
2022-10-13T06:32:23.130Z,42.60
2022-10-13T06:37:27.479Z,43.13
2022-10-13T06:42:31.974Z,43.51
2022-10-13T06:47:33.836Z,43.27
2022-10-13T06:52:35.608Z,42.52
2022-10-13T06:57:37.547Z,42.78
2022-10-13T07:02:39.839Z,42.72
2022-10-13T07:07:41.941Z,45.22
2022-10-13T07:12:43.920Z,44.84
2022-10-13T07:17:45.795Z,44.74
2022-10-13T07:22:48.110Z,43.95
2022-10-13T07:27:50.356Z,43.67
2022-10-13T07:32:52.566Z,43.86
2022-10-13T07:37:54.418Z,43.44
2022-10-13T07:42:57.416Z,44.16
2022-10-13T07:47:59.440Z,43.96
2022-10-13T07:53:01.486Z,43.96
2022-10-13T07:58:03.892Z,43.82
2022-10-13T08:03:05.859Z,44.01
2022-10-13T08:08:07.824Z,43.35
2022-10-13T08:13:11.369Z,43.02
2022-10-13T08:18:14.887Z,42.94
2022-10-13T08:23:16.943Z,42.93
2022-10-13T08:28:21.165Z,43.11
2022-10-13T08:33:23.301Z,42.87
2022-10-13T08:38:25.802Z,42.94
2022-10-13T08:43:28.315Z,42.90
2022-10-13T08:48:33.632Z,42.77
2022-10-13T08:53:40.125Z,42.48
2022-10-13T08:58:43.379Z,42.37
2022-10-13T09:04:22.620Z,42.83
2022-10-13T09:09:24.918Z,42.58
2022-10-13T09:14:29.600Z,42.68
2022-10-13T09:19:36.716Z,42.59
2022-10-13T09:24:38.959Z,42.25
2022-10-13T09:29:41.867Z,42.26
2022-10-13T09:34:44.263Z,42.25
2022-10-13T09:39:46.176Z,43.96
2022-10-13T09:44:57.077Z,44.99
2022-10-13T09:50:16.405Z,44.55
2022-10-13T09:55:34.966Z,44.33
2022-10-13T10:00:37.687Z,44.17
2022-10-13T10:05:58.182Z,44.10
2022-10-13T10:11:10.096Z,44.15
2022-10-13T10:16:20.834Z,43.89
2022-10-13T10:21:44.244Z,43.91
2022-10-13T10:26:56.322Z,43.71
2022-10-13T10:32:16.585Z,43.75
2022-10-13T10:37:28.294Z,43.61
2022-10-13T10:43:34.861Z,43.95
2022-10-13T10:48:39.503Z,43.41
2022-10-13T10:54:04.338Z,43.09
2022-10-13T10:59:43.035Z,43.31
2022-10-13T11:04:50.101Z,42.89
2022-10-13T11:09:57.519Z,43.18
2022-10-13T11:15:14.594Z,42.93
2022-10-13T11:20:20.131Z,43.07
2022-10-13T11:25:37.501Z,42.79
2022-10-13T11:30:53.011Z,42.87
2022-10-13T11:35:55.163Z,43.34
2022-10-13T11:41:25.408Z,43.28
2022-10-13T11:46:31.858Z,43.56
2022-10-13T11:51:52.224Z,43.09
2022-10-13T11:56:57.193Z,43.33
2022-10-13T12:02:06.261Z,43.30
2022-10-13T12:07:11.064Z,42.96
2022-10-13T12:12:19.054Z,42.99
2022-10-13T12:17:27.579Z,43.05
2022-10-13T12:22:30.816Z,43.98
2022-10-13T12:27:42.938Z,43.81
2022-10-13T12:32:50.781Z,43.85
2022-10-13T12:37:53.992Z,43.31
2022-10-13T12:42:56.251Z,43.88
2022-10-13T12:47:58.284Z,43.31
2022-10-13T12:53:14.368Z,43.36
2022-10-13T12:58:22.918Z,43.36
2022-10-13T13:03:28.839Z,43.55
2022-10-13T13:08:34.157Z,43.25
2022-10-13T13:13:36.201Z,43.22
2022-10-13T13:18:42.852Z,42.83
2022-10-13T13:23:51.190Z,43.11
2022-10-13T13:28:57.249Z,42.91
2022-10-13T13:33:59.161Z,43.44
2022-10-13T13:39:01.072Z,43.02
2022-10-13T13:44:03.369Z,43.15
2022-10-13T13:49:05.228Z,43.02
2022-10-13T13:54:07.043Z,42.96
2022-10-13T13:59:09.184Z,43.41
2022-10-13T14:04:11.193Z,43.11
2022-10-13T14:09:13.061Z,42.99
2022-10-13T14:14:14.955Z,42.83
2022-10-13T14:19:16.996Z,42.81
2022-10-13T14:24:19.750Z,43.22
2022-10-13T14:29:22.083Z,43.20
2022-10-13T14:34:24.037Z,42.77
2022-10-13T14:39:26.110Z,42.91
2022-10-13T14:44:28.005Z,43.04
2022-10-13T14:49:29.810Z,43.48
2022-10-13T14:54:31.917Z,43.74
2022-10-13T14:59:34.025Z,43.87
2022-10-13T15:04:36.026Z,43.64
2022-10-13T15:09:52.092Z,43.79
2022-10-13T15:14:54.907Z,44.04
2022-10-13T15:19:56.907Z,45.20
2022-10-13T15:24:59.008Z,45.35
2022-10-13T15:30:00.940Z,45.04
2022-10-13T15:35:03.128Z,45.08
2022-10-13T15:40:05.247Z,45.36
2022-10-13T15:45:10.454Z,44.67
2022-10-13T15:50:12.830Z,44.64
2022-10-13T15:55:14.745Z,44.84
2022-10-13T16:00:16.797Z,44.73
2022-10-13T16:05:19.487Z,44.68
2022-10-13T16:10:21.312Z,44.86
2022-10-13T16:15:23.871Z,44.55
2022-10-13T16:20:26.386Z,44.96
2022-10-13T16:25:29.751Z,45.33
2022-10-13T16:30:31.664Z,44.99
2022-10-13T16:35:34.641Z,45.49
2022-10-13T16:40:39.268Z,45.51
2022-10-13T16:45:59.324Z,45.43
2022-10-13T16:51:08.873Z,45.67
2022-10-13T16:56:10.910Z,45.57
2022-10-13T17:01:13.752Z,45.61
2022-10-13T17:06:15.926Z,45.48
2022-10-13T17:11:23.977Z,46.01
2022-10-13T17:16:27.163Z,45.54
2022-10-13T17:21:29.177Z,45.37
2022-10-13T17:26:32.130Z,45.38
2022-10-13T17:31:33.931Z,45.17
2022-10-13T17:36:36.179Z,45.72
2022-10-13T17:41:38.269Z,45.09
2022-10-13T17:46:40.437Z,45.39
2022-10-13T17:51:43.399Z,45.53
2022-10-13T17:56:48.838Z,45.29
2022-10-13T18:01:50.769Z,45.13
2022-10-13T18:06:53.372Z,44.82
2022-10-13T18:11:55.438Z,44.76
2022-10-13T18:16:57.342Z,45.32
2022-10-13T18:21:59.047Z,45.30
2022-10-13T18:27:01.030Z,45.28
2022-10-13T18:32:03.258Z,45.21
2022-10-13T18:37:05.792Z,45.47
2022-10-13T18:42:08.224Z,45.04
2022-10-13T18:47:10.072Z,45.34
2022-10-13T18:52:12.430Z,45.28
2022-10-13T18:57:14.298Z,45.34
2022-10-13T19:02:16.401Z,45.43
2022-10-13T19:07:18.665Z,45.57
2022-10-13T19:12:20.715Z,45.50
2022-10-13T19:17:23.458Z,45.36
2022-10-13T19:22:25.541Z,45.48
2022-10-13T19:27:28.102Z,45.33
2022-10-13T19:32:29.902Z,45.47
2022-10-13T19:37:32.411Z,45.13
2022-10-13T19:42:34.373Z,45.30
2022-10-13T19:47:36.182Z,44.89
2022-10-13T19:52:37.903Z,45.18
2022-10-13T19:57:39.674Z,44.80
2022-10-13T20:02:41.530Z,45.46
2022-10-13T20:07:43.480Z,45.07
2022-10-13T20:12:45.227Z,45.13
2022-10-13T20:17:47.108Z,45.11
2022-10-13T20:22:48.906Z,45.27
2022-10-13T20:27:51.005Z,45.05
2022-10-13T20:32:52.941Z,45.01
2022-10-13T20:37:55.158Z,44.90
2022-10-13T20:42:56.979Z,44.85
2022-10-13T20:47:58.807Z,44.60
2022-10-13T20:53:00.627Z,44.90
2022-10-13T20:58:02.415Z,44.42
2022-10-13T21:03:04.397Z,44.81
2022-10-13T21:08:06.287Z,44.95
2022-10-13T21:13:08.227Z,44.58
2022-10-13T21:18:11.216Z,44.93
2022-10-13T21:23:13.200Z,44.82
2022-10-13T21:28:15.199Z,44.74
2022-10-13T21:33:17.264Z,44.86
2022-10-13T21:38:19.067Z,44.53
2022-10-13T21:43:20.990Z,44.25
2022-10-13T21:48:26.046Z,44.51
2022-10-13T21:53:27.991Z,44.46
2022-10-13T21:58:29.960Z,44.21
2022-10-13T22:03:32.756Z,44.16
2022-10-13T22:08:39.292Z,44.45
2022-10-13T22:13:41.278Z,44.25
2022-10-13T22:18:43.428Z,44.38
2022-10-13T22:23:45.788Z,44.32
2022-10-13T22:28:51.670Z,44.28
2022-10-13T22:33:55.018Z,44.32
2022-10-13T22:38:59.747Z,44.47
2022-10-13T22:44:02.211Z,44.54
2022-10-13T22:49:05.445Z,44.11
2022-10-13T22:54:07.602Z,44.44
2022-10-13T22:59:09.664Z,44.08
2022-10-13T23:04:11.913Z,44.21
2022-10-13T23:09:14.355Z,44.44
2022-10-13T23:14:16.271Z,44.04
2022-10-13T23:19:19.792Z,44.18
2022-10-13T23:24:21.875Z,44.36
2022-10-13T23:29:23.859Z,44.09
2022-10-13T23:34:26.296Z,44.42
2022-10-13T23:39:29.745Z,44.12
2022-10-13T23:44:31.704Z,44.22
2022-10-13T23:49:33.489Z,44.17
2022-10-13T23:54:35.494Z,44.37
2022-10-13T23:59:37.479Z,44.23
